sensor_id;sensor_type;location;lat;lon;timestamp;P1;durP1;ratioP1;P2;durP2;ratioP2
11004;SDS011;5555;59.622;16.556;2023-01-10T00:00:50;3.80;;;2.80;;
11004;SDS011;5555;59.622;16.556;2023-01-10T00:03:16;3.20;;;2.60;;
11004;SDS011;5555;59.622;16.556;2023-01-10T00:05:42;3.53;;;3.20;;
11004;SDS011;5555;59.622;16.556;2023-01-10T00:08:13;3.87;;;3.03;;
11004;SDS011;5555;59.622;16.556;2023-01-10T00:10:42;3.87;;;2.90;;
11004;SDS011;5555;59.622;16.556;2023-01-10T00:13:12;3.10;;;2.47;;
11004;SDS011;5555;59.622;16.556;2023-01-10T00:15:52;3.73;;;2.80;;
11004;SDS011;5555;59.622;16.556;2023-01-10T00:18:19;3.97;;;3.10;;
11004;SDS011;5555;59.622;16.556;2023-01-10T00:20:48;3.50;;;2.83;;
11004;SDS011;5555;59.622;16.556;2023-01-10T00:23:14;3.10;;;2.80;;
11004;SDS011;5555;59.622;16.556;2023-01-10T00:25:41;3.00;;;2.40;;
11004;SDS011;5555;59.622;16.556;2023-01-10T00:28:06;3.90;;;3.13;;
11004;SDS011;5555;59.622;16.556;2023-01-10T00:30:45;3.00;;;2.47;;
11004;SDS011;5555;59.622;16.556;2023-01-10T00:33:13;3.67;;;2.80;;
11004;SDS011;5555;59.622;16.556;2023-01-10T00:35:45;3.40;;;2.97;;
11004;SDS011;5555;59.622;16.556;2023-01-10T00:38:11;3.47;;;3.00;;
11004;SDS011;5555;59.622;16.556;2023-01-10T00:40:38;3.87;;;3.13;;
11004;SDS011;5555;59.622;16.556;2023-01-10T00:43:04;2.70;;;2.30;;
11004;SDS011;5555;59.622;16.556;2023-01-10T00:45:48;3.83;;;2.90;;
11004;SDS011;5555;59.622;16.556;2023-01-10T00:48:15;3.03;;;2.77;;
11004;SDS011;5555;59.622;16.556;2023-01-10T00:50:41;3.20;;;2.80;;
11004;SDS011;5555;59.622;16.556;2023-01-10T00:53:07;3.20;;;2.80;;
11004;SDS011;5555;59.622;16.556;2023-01-10T00:55:34;3.10;;;2.40;;
11004;SDS011;5555;59.622;16.556;2023-01-10T00:58:00;3.07;;;2.53;;
11004;SDS011;5555;59.622;16.556;2023-01-10T01:00:26;3.77;;;2.63;;
11004;SDS011;5555;59.622;16.556;2023-01-10T01:02:52;3.90;;;2.70;;
11004;SDS011;5555;59.622;16.556;2023-01-10T01:05:18;2.67;;;2.40;;
11004;SDS011;5555;59.622;16.556;2023-01-10T01:07:48;2.87;;;2.50;;
11004;SDS011;5555;59.622;16.556;2023-01-10T01:10:16;3.40;;;2.67;;
11004;SDS011;5555;59.622;16.556;2023-01-10T01:12:56;4.03;;;3.10;;
11004;SDS011;5555;59.622;16.556;2023-01-10T01:15:24;2.47;;;2.27;;
11004;SDS011;5555;59.622;16.556;2023-01-10T01:17:51;2.63;;;2.23;;
11004;SDS011;5555;59.622;16.556;2023-01-10T01:20:17;2.63;;;1.83;;
11004;SDS011;5555;59.622;16.556;2023-01-10T01:22:44;3.33;;;2.43;;
11004;SDS011;5555;59.622;16.556;2023-01-10T01:25:13;2.63;;;2.20;;
11004;SDS011;5555;59.622;16.556;2023-01-10T01:27:39;3.07;;;2.13;;
11004;SDS011;5555;59.622;16.556;2023-01-10T01:30:08;2.40;;;2.20;;
11004;SDS011;5555;59.622;16.556;2023-01-10T01:32:35;2.57;;;2.13;;
11004;SDS011;5555;59.622;16.556;2023-01-10T01:35:01;2.67;;;2.20;;
11004;SDS011;5555;59.622;16.556;2023-01-10T01:37:27;2.63;;;2.17;;
11004;SDS011;5555;59.622;16.556;2023-01-10T01:39:53;2.87;;;2.30;;
11004;SDS011;5555;59.622;16.556;2023-01-10T01:42:26;2.53;;;2.27;;
11004;SDS011;5555;59.622;16.556;2023-01-10T01:47:45;3.23;;;2.40;;
11004;SDS011;5555;59.622;16.556;2023-01-10T01:50:13;3.07;;;2.77;;
11004;SDS011;5555;59.622;16.556;2023-01-10T01:52:43;3.10;;;2.17;;
11004;SDS011;5555;59.622;16.556;2023-01-10T01:55:11;2.07;;;1.73;;
11004;SDS011;5555;59.622;16.556;2023-01-10T01:57:37;3.80;;;2.10;;
11004;SDS011;5555;59.622;16.556;2023-01-10T02:00:03;3.50;;;2.20;;
11004;SDS011;5555;59.622;16.556;2023-01-10T02:02:41;2.30;;;1.90;;
11004;SDS011;5555;59.622;16.556;2023-01-10T02:05:20;2.20;;;2.00;;
11004;SDS011;5555;59.622;16.556;2023-01-10T02:07:48;3.20;;;2.37;;
11004;SDS011;5555;59.622;16.556;2023-01-10T02:13:07;2.20;;;2.00;;
11004;SDS011;5555;59.622;16.556;2023-01-10T02:15:35;2.20;;;2.00;;
11004;SDS011;5555;59.622;16.556;2023-01-10T02:18:01;2.40;;;2.20;;
11004;SDS011;5555;59.622;16.556;2023-01-10T02:20:29;2.07;;;1.70;;
11004;SDS011;5555;59.622;16.556;2023-01-10T02:25:58;2.23;;;1.80;;
11004;SDS011;5555;59.622;16.556;2023-01-10T02:28:45;4.07;;;2.10;;
11004;SDS011;5555;59.622;16.556;2023-01-10T02:32:16;2.43;;;2.03;;
11004;SDS011;5555;59.622;16.556;2023-01-10T02:37:01;2.97;;;2.03;;
11004;SDS011;5555;59.622;16.556;2023-01-10T02:40:19;2.80;;;2.37;;
11004;SDS011;5555;59.622;16.556;2023-01-10T02:42:44;2.87;;;2.57;;
11004;SDS011;5555;59.622;16.556;2023-01-10T02:45:17;3.10;;;2.50;;
11004;SDS011;5555;59.622;16.556;2023-01-10T02:47:45;2.43;;;2.23;;
11004;SDS011;5555;59.622;16.556;2023-01-10T02:50:27;3.90;;;2.53;;
11004;SDS011;5555;59.622;16.556;2023-01-10T02:53:06;2.77;;;2.43;;
11004;SDS011;5555;59.622;16.556;2023-01-10T02:56:13;3.43;;;2.93;;
11004;SDS011;5555;59.622;16.556;2023-01-10T03:01:47;3.13;;;2.50;;
11004;SDS011;5555;59.622;16.556;2023-01-10T03:04:23;4.13;;;3.23;;
11004;SDS011;5555;59.622;16.556;2023-01-10T03:07:19;3.33;;;2.90;;
11004;SDS011;5555;59.622;16.556;2023-01-10T03:13:09;4.33;;;2.93;;
11004;SDS011;5555;59.622;16.556;2023-01-10T03:15:37;4.33;;;3.90;;
11004;SDS011;5555;59.622;16.556;2023-01-10T03:18:07;3.40;;;2.53;;
11004;SDS011;5555;59.622;16.556;2023-01-10T03:20:38;3.37;;;3.07;;
11004;SDS011;5555;59.622;16.556;2023-01-10T03:23:07;4.30;;;3.90;;
11004;SDS011;5555;59.622;16.556;2023-01-10T03:25:35;3.60;;;3.03;;
11004;SDS011;5555;59.622;16.556;2023-01-10T03:33:09;3.43;;;3.00;;
11004;SDS011;5555;59.622;16.556;2023-01-10T03:38:09;3.60;;;2.97;;
11004;SDS011;5555;59.622;16.556;2023-01-10T03:40:51;3.83;;;3.10;;
11004;SDS011;5555;59.622;16.556;2023-01-10T03:43:31;3.30;;;3.00;;
11004;SDS011;5555;59.622;16.556;2023-01-10T03:46:27;3.90;;;2.67;;
11004;SDS011;5555;59.622;16.556;2023-01-10T03:48:59;4.33;;;3.23;;
11004;SDS011;5555;59.622;16.556;2023-01-10T03:51:28;3.33;;;2.80;;
11004;SDS011;5555;59.622;16.556;2023-01-10T03:53:55;4.80;;;3.20;;
11004;SDS011;5555;59.622;16.556;2023-01-10T03:56:24;4.00;;;2.90;;
11004;SDS011;5555;59.622;16.556;2023-01-10T03:58:50;4.27;;;3.87;;
11004;SDS011;5555;59.622;16.556;2023-01-10T04:01:15;4.37;;;3.20;;
11004;SDS011;5555;59.622;16.556;2023-01-10T04:03:41;4.13;;;3.13;;
11004;SDS011;5555;59.622;16.556;2023-01-10T04:06:07;4.43;;;3.00;;
11004;SDS011;5555;59.622;16.556;2023-01-10T04:08:32;3.40;;;3.10;;
11004;SDS011;5555;59.622;16.556;2023-01-10T04:10:58;4.23;;;3.23;;
11004;SDS011;5555;59.622;16.556;2023-01-10T04:13:23;4.50;;;3.83;;
11004;SDS011;5555;59.622;16.556;2023-01-10T04:15:49;3.40;;;3.10;;
11004;SDS011;5555;59.622;16.556;2023-01-10T04:18:15;3.50;;;3.20;;
11004;SDS011;5555;59.622;16.556;2023-01-10T04:20:41;3.03;;;2.70;;
11004;SDS011;5555;59.622;16.556;2023-01-10T04:23:06;4.97;;;3.27;;
11004;SDS011;5555;59.622;16.556;2023-01-10T04:25:32;3.37;;;2.90;;
11004;SDS011;5555;59.622;16.556;2023-01-10T04:27:57;3.97;;;3.30;;
11004;SDS011;5555;59.622;16.556;2023-01-10T04:30:23;3.37;;;2.70;;
11004;SDS011;5555;59.622;16.556;2023-01-10T04:32:49;4.20;;;3.00;;
11004;SDS011;5555;59.622;16.556;2023-01-10T04:35:14;5.80;;;3.33;;
11004;SDS011;5555;59.622;16.556;2023-01-10T04:37:40;5.80;;;4.87;;
11004;SDS011;5555;59.622;16.556;2023-01-10T04:40:07;4.70;;;3.40;;
11004;SDS011;5555;59.622;16.556;2023-01-10T04:42:33;4.23;;;3.83;;
11004;SDS011;5555;59.622;16.556;2023-01-10T04:44:58;6.23;;;4.03;;
11004;SDS011;5555;59.622;16.556;2023-01-10T04:47:24;6.33;;;4.50;;
11004;SDS011;5555;59.622;16.556;2023-01-10T04:49:49;6.10;;;4.83;;
11004;SDS011;5555;59.622;16.556;2023-01-10T04:52:15;7.17;;;5.47;;
11004;SDS011;5555;59.622;16.556;2023-01-10T04:54:41;6.23;;;4.33;;
11004;SDS011;5555;59.622;16.556;2023-01-10T04:57:06;5.43;;;4.50;;
11004;SDS011;5555;59.622;16.556;2023-01-10T04:59:32;7.00;;;4.90;;
11004;SDS011;5555;59.622;16.556;2023-01-10T05:01:57;5.90;;;4.90;;
11004;SDS011;5555;59.622;16.556;2023-01-10T05:04:23;5.67;;;4.80;;
11004;SDS011;5555;59.622;16.556;2023-01-10T05:06:49;7.77;;;6.30;;
11004;SDS011;5555;59.622;16.556;2023-01-10T05:09:15;9.57;;;6.63;;
11004;SDS011;5555;59.622;16.556;2023-01-10T05:11:41;8.87;;;5.97;;
11004;SDS011;5555;59.622;16.556;2023-01-10T05:14:06;8.90;;;4.97;;
11004;SDS011;5555;59.622;16.556;2023-01-10T05:16:32;7.53;;;5.77;;
11004;SDS011;5555;59.622;16.556;2023-01-10T05:18:58;7.00;;;5.63;;
11004;SDS011;5555;59.622;16.556;2023-01-10T05:21:23;9.43;;;6.03;;
11004;SDS011;5555;59.622;16.556;2023-01-10T05:23:49;8.23;;;5.90;;
11004;SDS011;5555;59.622;16.556;2023-01-10T05:26:16;9.70;;;7.63;;
11004;SDS011;5555;59.622;16.556;2023-01-10T05:28:43;12.13;;;6.17;;
11004;SDS011;5555;59.622;16.556;2023-01-10T05:31:11;7.13;;;5.57;;
11004;SDS011;5555;59.622;16.556;2023-01-10T05:33:38;10.40;;;5.87;;
11004;SDS011;5555;59.622;16.556;2023-01-10T05:36:04;8.60;;;5.80;;
11004;SDS011;5555;59.622;16.556;2023-01-10T05:38:30;8.60;;;6.97;;
11004;SDS011;5555;59.622;16.556;2023-01-10T05:40:57;12.07;;;6.33;;
11004;SDS011;5555;59.622;16.556;2023-01-10T05:43:24;13.30;;;8.23;;
11004;SDS011;5555;59.622;16.556;2023-01-10T05:45:50;10.87;;;6.90;;
11004;SDS011;5555;59.622;16.556;2023-01-10T05:48:16;10.30;;;6.70;;
11004;SDS011;5555;59.622;16.556;2023-01-10T05:50:43;11.70;;;6.63;;
11004;SDS011;5555;59.622;16.556;2023-01-10T05:53:08;12.47;;;6.57;;
11004;SDS011;5555;59.622;16.556;2023-01-10T05:55:34;14.07;;;8.63;;
11004;SDS011;5555;59.622;16.556;2023-01-10T05:58:00;14.23;;;8.73;;
11004;SDS011;5555;59.622;16.556;2023-01-10T06:00:25;13.87;;;7.43;;
11004;SDS011;5555;59.622;16.556;2023-01-10T06:02:55;14.87;;;6.87;;
11004;SDS011;5555;59.622;16.556;2023-01-10T06:05:21;14.60;;;8.73;;
11004;SDS011;5555;59.622;16.556;2023-01-10T06:07:47;12.00;;;7.67;;
11004;SDS011;5555;59.622;16.556;2023-01-10T06:10:13;16.00;;;7.57;;
11004;SDS011;5555;59.622;16.556;2023-01-10T06:12:39;12.80;;;8.70;;
11004;SDS011;5555;59.622;16.556;2023-01-10T06:15:06;11.50;;;7.20;;
11004;SDS011;5555;59.622;16.556;2023-01-10T06:17:32;17.90;;;7.93;;
11004;SDS011;5555;59.622;16.556;2023-01-10T06:19:58;13.87;;;8.00;;
11004;SDS011;5555;59.622;16.556;2023-01-10T06:22:23;17.37;;;7.80;;
11004;SDS011;5555;59.622;16.556;2023-01-10T06:24:50;13.83;;;7.53;;
11004;SDS011;5555;59.622;16.556;2023-01-10T06:27:16;13.70;;;8.13;;
11004;SDS011;5555;59.622;16.556;2023-01-10T06:29:42;15.97;;;8.00;;
11004;SDS011;5555;59.622;16.556;2023-01-10T06:32:07;14.70;;;9.33;;
11004;SDS011;5555;59.622;16.556;2023-01-10T06:34:33;14.50;;;9.27;;
11004;SDS011;5555;59.622;16.556;2023-01-10T06:36:59;13.40;;;7.70;;
11004;SDS011;5555;59.622;16.556;2023-01-10T06:39:25;17.13;;;8.50;;
11004;SDS011;5555;59.622;16.556;2023-01-10T06:41:50;17.57;;;8.53;;
11004;SDS011;5555;59.622;16.556;2023-01-10T06:44:16;51.70;;;13.43;;
11004;SDS011;5555;59.622;16.556;2023-01-10T06:46:42;23.73;;;12.30;;
11004;SDS011;5555;59.622;16.556;2023-01-10T06:49:07;19.73;;;11.03;;
11004;SDS011;5555;59.622;16.556;2023-01-10T06:51:33;22.77;;;11.23;;
11004;SDS011;5555;59.622;16.556;2023-01-10T06:53:58;19.80;;;9.10;;
11004;SDS011;5555;59.622;16.556;2023-01-10T06:56:24;31.20;;;9.57;;
11004;SDS011;5555;59.622;16.556;2023-01-10T06:58:50;31.87;;;9.90;;
11004;SDS011;5555;59.622;16.556;2023-01-10T07:01:17;25.70;;;10.70;;
11004;SDS011;5555;59.622;16.556;2023-01-10T07:03:44;23.83;;;10.90;;
11004;SDS011;5555;59.622;16.556;2023-01-10T07:06:10;26.10;;;9.43;;
11004;SDS011;5555;59.622;16.556;2023-01-10T07:08:36;26.23;;;9.80;;
11004;SDS011;5555;59.622;16.556;2023-01-10T07:11:07;41.10;;;10.97;;
11004;SDS011;5555;59.622;16.556;2023-01-10T07:13:33;91.80;;;13.40;;
11004;SDS011;5555;59.622;16.556;2023-01-10T07:16:00;30.77;;;10.07;;
11004;SDS011;5555;59.622;16.556;2023-01-10T07:18:37;26.17;;;9.13;;
11004;SDS011;5555;59.622;16.556;2023-01-10T07:21:04;41.50;;;9.83;;
11004;SDS011;5555;59.622;16.556;2023-01-10T07:23:30;25.93;;;11.73;;
11004;SDS011;5555;59.622;16.556;2023-01-10T07:25:56;29.17;;;11.80;;
11004;SDS011;5555;59.622;16.556;2023-01-10T07:28:25;31.20;;;12.10;;
11004;SDS011;5555;59.622;16.556;2023-01-10T07:30:51;24.97;;;10.90;;
11004;SDS011;5555;59.622;16.556;2023-01-10T07:33:17;24.73;;;9.23;;
11004;SDS011;5555;59.622;16.556;2023-01-10T07:35:42;81.73;;;13.53;;
11004;SDS011;5555;59.622;16.556;2023-01-10T07:38:08;29.83;;;11.67;;
11004;SDS011;5555;59.622;16.556;2023-01-10T07:40:33;38.00;;;10.67;;
11004;SDS011;5555;59.622;16.556;2023-01-10T07:42:59;28.40;;;9.70;;
11004;SDS011;5555;59.622;16.556;2023-01-10T07:45:26;26.50;;;8.13;;
11004;SDS011;5555;59.622;16.556;2023-01-10T07:47:55;24.93;;;11.10;;
11004;SDS011;5555;59.622;16.556;2023-01-10T07:50:25;29.40;;;10.60;;
11004;SDS011;5555;59.622;16.556;2023-01-10T07:52:52;30.67;;;13.20;;
11004;SDS011;5555;59.622;16.556;2023-01-10T07:55:18;24.93;;;11.87;;
11004;SDS011;5555;59.622;16.556;2023-01-10T07:57:44;21.10;;;9.07;;
11004;SDS011;5555;59.622;16.556;2023-01-10T08:00:10;19.97;;;8.33;;
11004;SDS011;5555;59.622;16.556;2023-01-10T08:02:36;27.33;;;9.17;;
11004;SDS011;5555;59.622;16.556;2023-01-10T08:05:02;24.30;;;9.23;;
11004;SDS011;5555;59.622;16.556;2023-01-10T08:07:28;21.47;;;9.07;;
11004;SDS011;5555;59.622;16.556;2023-01-10T08:09:54;22.33;;;10.60;;
11004;SDS011;5555;59.622;16.556;2023-01-10T08:12:20;19.50;;;8.00;;
11004;SDS011;5555;59.622;16.556;2023-01-10T08:14:48;19.83;;;8.93;;
11004;SDS011;5555;59.622;16.556;2023-01-10T08:17:14;18.07;;;8.40;;
11004;SDS011;5555;59.622;16.556;2023-01-10T08:19:40;14.27;;;7.67;;
11004;SDS011;5555;59.622;16.556;2023-01-10T08:22:05;17.43;;;8.53;;
11004;SDS011;5555;59.622;16.556;2023-01-10T08:24:31;17.87;;;8.30;;
11004;SDS011;5555;59.622;16.556;2023-01-10T08:26:57;21.30;;;10.80;;
11004;SDS011;5555;59.622;16.556;2023-01-10T08:29:23;20.70;;;10.73;;
11004;SDS011;5555;59.622;16.556;2023-01-10T08:31:48;19.23;;;10.37;;
11004;SDS011;5555;59.622;16.556;2023-01-10T08:34:14;18.83;;;10.70;;
11004;SDS011;5555;59.622;16.556;2023-01-10T08:36:40;18.80;;;10.67;;
11004;SDS011;5555;59.622;16.556;2023-01-10T08:39:05;22.23;;;10.80;;
11004;SDS011;5555;59.622;16.556;2023-01-10T08:41:31;21.03;;;11.43;;
11004;SDS011;5555;59.622;16.556;2023-01-10T08:43:57;22.30;;;9.87;;
11004;SDS011;5555;59.622;16.556;2023-01-10T08:46:22;20.83;;;9.83;;
11004;SDS011;5555;59.622;16.556;2023-01-10T08:48:48;25.37;;;11.23;;
11004;SDS011;5555;59.622;16.556;2023-01-10T08:51:14;28.57;;;10.87;;
11004;SDS011;5555;59.622;16.556;2023-01-10T08:53:40;24.90;;;12.87;;
11004;SDS011;5555;59.622;16.556;2023-01-10T08:56:06;27.57;;;11.50;;
11004;SDS011;5555;59.622;16.556;2023-01-10T08:58:33;24.03;;;9.83;;
11004;SDS011;5555;59.622;16.556;2023-01-10T09:01:02;21.23;;;9.13;;
11004;SDS011;5555;59.622;16.556;2023-01-10T09:03:29;24.23;;;11.90;;
11004;SDS011;5555;59.622;16.556;2023-01-10T09:05:54;40.07;;;13.40;;
11004;SDS011;5555;59.622;16.556;2023-01-10T09:08:22;34.77;;;11.07;;
11004;SDS011;5555;59.622;16.556;2023-01-10T09:10:47;49.00;;;15.73;;
11004;SDS011;5555;59.622;16.556;2023-01-10T09:13:13;33.57;;;11.67;;
11004;SDS011;5555;59.622;16.556;2023-01-10T09:15:40;43.37;;;12.60;;
11004;SDS011;5555;59.622;16.556;2023-01-10T09:18:07;26.13;;;11.57;;
11004;SDS011;5555;59.622;16.556;2023-01-10T09:20:36;22.07;;;11.33;;
11004;SDS011;5555;59.622;16.556;2023-01-10T09:23:10;54.73;;;13.93;;
11004;SDS011;5555;59.622;16.556;2023-01-10T09:25:41;33.87;;;11.63;;
11004;SDS011;5555;59.622;16.556;2023-01-10T09:28:07;32.00;;;10.27;;
11004;SDS011;5555;59.622;16.556;2023-01-10T09:30:33;30.40;;;10.50;;
11004;SDS011;5555;59.622;16.556;2023-01-10T09:32:59;35.17;;;10.77;;
11004;SDS011;5555;59.622;16.556;2023-01-10T09:35:25;34.67;;;12.53;;
11004;SDS011;5555;59.622;16.556;2023-01-10T09:37:52;34.17;;;12.93;;
11004;SDS011;5555;59.622;16.556;2023-01-10T09:40:22;21.27;;;9.80;;
11004;SDS011;5555;59.622;16.556;2023-01-10T09:43:14;60.27;;;14.20;;
11004;SDS011;5555;59.622;16.556;2023-01-10T09:45:44;28.73;;;10.87;;
11004;SDS011;5555;59.622;16.556;2023-01-10T09:48:19;34.17;;;10.50;;
11004;SDS011;5555;59.622;16.556;2023-01-10T09:53:34;40.03;;;10.23;;
11004;SDS011;5555;59.622;16.556;2023-01-10T09:56:04;34.30;;;10.93;;
11004;SDS011;5555;59.622;16.556;2023-01-10T09:58:32;45.03;;;11.33;;
11004;SDS011;5555;59.622;16.556;2023-01-10T10:01:00;40.83;;;14.13;;
11004;SDS011;5555;59.622;16.556;2023-01-10T10:06:00;32.27;;;11.33;;
11004;SDS011;5555;59.622;16.556;2023-01-10T10:08:27;47.63;;;15.37;;
11004;SDS011;5555;59.622;16.556;2023-01-10T10:11:37;32.33;;;14.17;;
11004;SDS011;5555;59.622;16.556;2023-01-10T10:19:59;25.70;;;12.83;;
11004;SDS011;5555;59.622;16.556;2023-01-10T10:22:45;29.90;;;13.13;;
11004;SDS011;5555;59.622;16.556;2023-01-10T10:31:03;22.07;;;12.27;;
11004;SDS011;5555;59.622;16.556;2023-01-10T10:33:42;21.13;;;11.70;;
11004;SDS011;5555;59.622;16.556;2023-01-10T10:36:22;27.10;;;11.70;;
11004;SDS011;5555;59.622;16.556;2023-01-10T10:38:50;20.13;;;10.87;;
11004;SDS011;5555;59.622;16.556;2023-01-10T10:41:32;23.47;;;11.33;;
11004;SDS011;5555;59.622;16.556;2023-01-10T10:44:05;29.23;;;13.23;;
11004;SDS011;5555;59.622;16.556;2023-01-10T10:46:53;29.20;;;12.30;;
11004;SDS011;5555;59.622;16.556;2023-01-10T10:49:34;24.63;;;13.37;;
11004;SDS011;5555;59.622;16.556;2023-01-10T10:52:04;30.77;;;14.30;;
11004;SDS011;5555;59.622;16.556;2023-01-10T10:54:38;30.00;;;14.67;;
11004;SDS011;5555;59.622;16.556;2023-01-10T10:57:04;23.60;;;14.03;;
11004;SDS011;5555;59.622;16.556;2023-01-10T10:59:29;21.43;;;13.60;;
11004;SDS011;5555;59.622;16.556;2023-01-10T11:01:55;26.10;;;14.03;;
11004;SDS011;5555;59.622;16.556;2023-01-10T11:04:21;21.10;;;13.53;;
11004;SDS011;5555;59.622;16.556;2023-01-10T11:06:48;23.30;;;14.53;;
11004;SDS011;5555;59.622;16.556;2023-01-10T11:09:18;21.97;;;14.50;;
11004;SDS011;5555;59.622;16.556;2023-01-10T11:12:03;26.23;;;15.10;;
11004;SDS011;5555;59.622;16.556;2023-01-10T11:14:43;22.53;;;15.03;;
11004;SDS011;5555;59.622;16.556;2023-01-10T11:19:56;23.47;;;15.93;;
11004;SDS011;5555;59.622;16.556;2023-01-10T11:22:27;24.03;;;15.70;;
11004;SDS011;5555;59.622;16.556;2023-01-10T11:24:58;26.03;;;14.70;;
11004;SDS011;5555;59.622;16.556;2023-01-10T11:27:26;27.43;;;16.23;;
11004;SDS011;5555;59.622;16.556;2023-01-10T11:29:56;31.53;;;16.33;;
11004;SDS011;5555;59.622;16.556;2023-01-10T11:32:34;34.37;;;17.87;;
11004;SDS011;5555;59.622;16.556;2023-01-10T11:35:06;30.17;;;16.43;;
11004;SDS011;5555;59.622;16.556;2023-01-10T11:37:41;38.80;;;18.97;;
11004;SDS011;5555;59.622;16.556;2023-01-10T11:40:18;28.80;;;17.73;;
11004;SDS011;5555;59.622;16.556;2023-01-10T11:42:49;48.17;;;20.13;;
11004;SDS011;5555;59.622;16.556;2023-01-10T11:47:47;37.00;;;18.30;;
11004;SDS011;5555;59.622;16.556;2023-01-10T11:50:24;65.83;;;20.47;;
11004;SDS011;5555;59.622;16.556;2023-01-10T11:52:53;39.37;;;19.70;;
11004;SDS011;5555;59.622;16.556;2023-01-10T11:55:20;50.37;;;21.73;;
11004;SDS011;5555;59.622;16.556;2023-01-10T11:57:59;43.10;;;20.70;;
11004;SDS011;5555;59.622;16.556;2023-01-10T12:00:40;46.57;;;19.40;;
11004;SDS011;5555;59.622;16.556;2023-01-10T12:03:29;49.17;;;20.53;;
11004;SDS011;5555;59.622;16.556;2023-01-10T12:06:07;72.20;;;23.07;;
11004;SDS011;5555;59.622;16.556;2023-01-10T12:08:38;75.60;;;25.20;;
11004;SDS011;5555;59.622;16.556;2023-01-10T12:11:10;44.97;;;20.87;;
11004;SDS011;5555;59.622;16.556;2023-01-10T12:13:57;54.80;;;20.30;;
11004;SDS011;5555;59.622;16.556;2023-01-10T12:18:58;43.73;;;20.00;;
11004;SDS011;5555;59.622;16.556;2023-01-10T12:21:39;39.87;;;20.20;;
11004;SDS011;5555;59.622;16.556;2023-01-10T12:24:17;47.77;;;22.13;;
11004;SDS011;5555;59.622;16.556;2023-01-10T12:26:50;51.33;;;21.40;;
11004;SDS011;5555;59.622;16.556;2023-01-10T12:29:21;46.40;;;21.53;;
11004;SDS011;5555;59.622;16.556;2023-01-10T12:31:50;48.97;;;21.80;;
11004;SDS011;5555;59.622;16.556;2023-01-10T12:34:19;46.93;;;20.47;;
11004;SDS011;5555;59.622;16.556;2023-01-10T12:39:33;56.10;;;22.47;;
11004;SDS011;5555;59.622;16.556;2023-01-10T12:44:59;41.57;;;20.10;;
11004;SDS011;5555;59.622;16.556;2023-01-10T12:50:16;54.80;;;22.93;;
11004;SDS011;5555;59.622;16.556;2023-01-10T12:52:54;43.00;;;20.80;;
11004;SDS011;5555;59.622;16.556;2023-01-10T12:55:30;43.33;;;21.23;;
11004;SDS011;5555;59.622;16.556;2023-01-10T12:58:06;37.00;;;20.53;;
11004;SDS011;5555;59.622;16.556;2023-01-10T13:00:44;58.30;;;24.73;;
11004;SDS011;5555;59.622;16.556;2023-01-10T13:03:24;51.40;;;23.07;;
11004;SDS011;5555;59.622;16.556;2023-01-10T13:05:53;79.17;;;26.87;;
11004;SDS011;5555;59.622;16.556;2023-01-10T13:08:22;35.40;;;20.20;;
11004;SDS011;5555;59.622;16.556;2023-01-10T13:10:57;30.60;;;18.77;;
11004;SDS011;5555;59.622;16.556;2023-01-10T13:13:33;29.03;;;18.73;;
11004;SDS011;5555;59.622;16.556;2023-01-10T13:19:02;27.97;;;17.10;;
11004;SDS011;5555;59.622;16.556;2023-01-10T13:21:31;23.13;;;14.97;;
11004;SDS011;5555;59.622;16.556;2023-01-10T13:24:05;22.63;;;15.17;;
11004;SDS011;5555;59.622;16.556;2023-01-10T13:26:49;18.33;;;14.00;;
11004;SDS011;5555;59.622;16.556;2023-01-10T13:29:22;18.20;;;13.87;;
11004;SDS011;5555;59.622;16.556;2023-01-10T13:31:54;20.80;;;14.83;;
11004;SDS011;5555;59.622;16.556;2023-01-10T13:34:26;18.97;;;13.83;;
11004;SDS011;5555;59.622;16.556;2023-01-10T13:36:57;19.93;;;13.37;;
11004;SDS011;5555;59.622;16.556;2023-01-10T13:39:32;18.77;;;13.50;;
11004;SDS011;5555;59.622;16.556;2023-01-10T13:55:57;18.83;;;12.20;;
11004;SDS011;5555;59.622;16.556;2023-01-10T14:08:53;15.23;;;11.40;;
11004;SDS011;5555;59.622;16.556;2023-01-10T14:14:12;14.13;;;9.40;;
11004;SDS011;5555;59.622;16.556;2023-01-10T14:17:33;12.77;;;9.10;;
11004;SDS011;5555;59.622;16.556;2023-01-10T14:22:37;10.30;;;8.37;;
11004;SDS011;5555;59.622;16.556;2023-01-10T14:25:07;7.80;;;6.00;;
11004;SDS011;5555;59.622;16.556;2023-01-10T14:27:46;8.83;;;5.30;;
11004;SDS011;5555;59.622;16.556;2023-01-10T14:30:20;5.53;;;5.03;;
11004;SDS011;5555;59.622;16.556;2023-01-10T14:32:50;6.03;;;4.70;;
11004;SDS011;5555;59.622;16.556;2023-01-10T14:35:21;6.50;;;4.93;;
11004;SDS011;5555;59.622;16.556;2023-01-10T14:37:55;5.77;;;4.27;;
11004;SDS011;5555;59.622;16.556;2023-01-10T14:43:08;5.13;;;4.03;;
11004;SDS011;5555;59.622;16.556;2023-01-10T14:45:42;5.33;;;4.10;;
11004;SDS011;5555;59.622;16.556;2023-01-10T14:48:31;6.10;;;3.53;;
11004;SDS011;5555;59.622;16.556;2023-01-10T14:53:46;4.63;;;3.30;;
11004;SDS011;5555;59.622;16.556;2023-01-10T14:56:20;4.83;;;2.97;;
11004;SDS011;5555;59.622;16.556;2023-01-10T14:58:50;3.67;;;2.60;;
11004;SDS011;5555;59.622;16.556;2023-01-10T15:01:19;3.93;;;3.40;;
11004;SDS011;5555;59.622;16.556;2023-01-10T15:03:47;3.83;;;2.90;;
11004;SDS011;5555;59.622;16.556;2023-01-10T15:06:13;4.97;;;3.33;;
11004;SDS011;5555;59.622;16.556;2023-01-10T15:08:39;5.77;;;4.03;;
11004;SDS011;5555;59.622;16.556;2023-01-10T15:11:06;5.17;;;4.67;;
11004;SDS011;5555;59.622;16.556;2023-01-10T15:13:38;8.33;;;4.30;;
11004;SDS011;5555;59.622;16.556;2023-01-10T15:16:16;8.10;;;5.20;;
11004;SDS011;5555;59.622;16.556;2023-01-10T15:18:47;5.63;;;4.50;;
11004;SDS011;5555;59.622;16.556;2023-01-10T15:21:14;4.80;;;4.07;;
11004;SDS011;5555;59.622;16.556;2023-01-10T15:23:43;3.10;;;2.53;;
11004;SDS011;5555;59.622;16.556;2023-01-10T15:26:15;2.93;;;2.20;;
11004;SDS011;5555;59.622;16.556;2023-01-10T15:28:43;2.70;;;2.50;;
11004;SDS011;5555;59.622;16.556;2023-01-10T15:31:13;3.73;;;2.20;;
11004;SDS011;5555;59.622;16.556;2023-01-10T15:33:41;3.17;;;2.07;;
11004;SDS011;5555;59.622;16.556;2023-01-10T15:36:16;4.07;;;2.13;;
11004;SDS011;5555;59.622;16.556;2023-01-10T15:38:44;4.37;;;2.07;;
11004;SDS011;5555;59.622;16.556;2023-01-10T15:41:16;3.53;;;2.27;;
11004;SDS011;5555;59.622;16.556;2023-01-10T15:43:47;5.43;;;2.60;;
11004;SDS011;5555;59.622;16.556;2023-01-10T15:46:21;3.20;;;2.20;;
11004;SDS011;5555;59.622;16.556;2023-01-10T15:49:00;3.47;;;2.33;;
11004;SDS011;5555;59.622;16.556;2023-01-10T15:59:36;3.53;;;2.70;;
11004;SDS011;5555;59.622;16.556;2023-01-10T16:04:37;5.87;;;3.00;;
11004;SDS011;5555;59.622;16.556;2023-01-10T16:07:04;3.53;;;2.37;;
11004;SDS011;5555;59.622;16.556;2023-01-10T16:09:33;3.73;;;2.90;;
11004;SDS011;5555;59.622;16.556;2023-01-10T16:11:59;5.57;;;2.73;;
11004;SDS011;5555;59.622;16.556;2023-01-10T16:14:43;5.13;;;2.70;;
11004;SDS011;5555;59.622;16.556;2023-01-10T16:17:09;4.53;;;2.30;;
11004;SDS011;5555;59.622;16.556;2023-01-10T16:19:36;4.03;;;2.20;;
11004;SDS011;5555;59.622;16.556;2023-01-10T16:22:02;3.90;;;1.93;;
11004;SDS011;5555;59.622;16.556;2023-01-10T16:24:29;4.30;;;1.73;;
11004;SDS011;5555;59.622;16.556;2023-01-10T16:26:57;6.37;;;1.87;;
11004;SDS011;5555;59.622;16.556;2023-01-10T16:29:27;4.27;;;1.50;;
11004;SDS011;5555;59.622;16.556;2023-01-10T16:31:53;4.53;;;1.93;;
11004;SDS011;5555;59.622;16.556;2023-01-10T16:34:19;5.27;;;1.67;;
11004;SDS011;5555;59.622;16.556;2023-01-10T16:36:45;4.40;;;1.90;;
11004;SDS011;5555;59.622;16.556;2023-01-10T16:39:12;2.73;;;1.50;;